メインページ
METAR-TAF:

METAR-TAF

空港 :

バグダード, イラク

バグダード国際空港

緯度: 33-15-45N, 経度: 44-14-04E, 海抜: 35m

現時点の気象観測

当レポートは38分前の19:00(UTC)に作成
東/南東の風 8kt
気温 14°C
湿度 77%
気圧 1012 hPa
視程10km以上
1,500メートル以下は雲なし、積乱雲なし

METAR: ORBI 251900Z 11008KT CAVOK 14/10 Q1012 NOSIG

時間: 22:38 (19:38 UTC)

予報

当レポートは2時間38分前の17:00(UTC)に作成
予報は25日の 18時(UTC)から 26日の 18時(UTC)まで有効
東/南東の風 8kt
視程10km以上
1,500メートル以下は雲なし、積乱雲なし
26日の 00時(UTC)から 26日の 02時(UTC)まで徐々に
東/南東の風 16kt
視程: 7000m
高度3000ftの千切れ雲あり
高度9000ftの千切れ雲あり
26日の 08時(UTC)から 26日の 10時(UTC)まで徐々に
変向風 3kt
26日の 09時(UTC)から 26日の 18時(UTC)まで一時的に
小雨

TAF: ORBI 251700Z 2518/2618 12008KT CAVOK BECMG 2600/2602 12016KT 7000 BKN030 BKN090 BECMG 2608/2610 VRB03KT TEMPO 2609/2618 -RA

4,000以上の空港の気象観測と天気予報(METAR報とTAF報)

利用可能な観測所は地図上に黄色い丸と赤い丸で示す。

丸の上にカーソルを重ねると観測所名を参照できる。

次にクリックすると気象観測と天気予報を参照できる。

マップの切り替え:黒色「×」印の緑ボタンをクリックして拡大、「-」印の緑ボタンをクリックして縮小、緑色の三角印をクリックして隣りの地図に切り替え


METAR-TAF: